Main page
METAR-TAF:

METAR-TAF

Airports :

Doha International Airport

Doha, Qatar

latitude: 25-15-40N, longitude: 051-33-54E, elevation: 11 m

Current weather observation

The report was made 34 minutes ago, at 19:30 UTC
Wind 5 kt from the Northwest
Temperature 39°C
Humidity 16%
Pressure 998 hPa
Visibility 10 km or more
no clouds below 1500 m and no cumulonimbus

METAR: OTBD 251930Z AUTO 32005KT CAVOK 39/09 Q0998 NOSIG

Time: 23:04 (20:04 UTC)

Forecast

The report was made 3 hours and 2 minutes ago, at 17:02 UTC
Forecast valid from 25 at 18 UTC to 26 at 24 UTC
Wind 7 kt from the Northwest
Visibility: 8000 m
Becoming
from 26 at 06 UTC to 26 at 08 UTC
Wind 13 kt from the North/Northeast

TAF: OTBD 251702Z 2518/2624 31007KT 8000 NSC BECMG 2606/2608 02013KT

Weather observations and forecasts of more than 4000 airports (METAR and TAF reports).

The available stations are represented by yellow and red dots on the map.

Hover mouse over dot to see the name of the station.

Then click to see weather observations and forecasts.

To change the map : click on the green buttons with a black cross to zoom in, on the green button with a dash to zoom out, or on the green arrows for adjacent maps.


METAR-TAF: